sensor_id;sensor_type;location;lat;lon;timestamp;P1;durP1;ratioP1;P2;durP2;ratioP2
62106;SDS011;48087;32.600;-97.100;2022-08-02T00:20:15;4;;;4;;
62106;SDS011;48087;32.600;-97.100;2022-08-02T00:42:46;3;;;3;;
62106;SDS011;48087;32.600;-97.100;2022-08-02T01:05:18;3;;;3;;
62106;SDS011;48087;32.600;-97.100;2022-08-02T01:27:51;4;;;4;;
62106;SDS011;48087;32.600;-97.100;2022-08-02T01:50:19;3;;;3;;
62106;SDS011;48087;32.600;-97.100;2022-08-02T02:12:48;4;;;4;;
62106;SDS011;48087;32.600;-97.100;2022-08-02T02:35:15;4;;;4;;
62106;SDS011;48087;32.600;-97.100;2022-08-02T02:36:24;6;;;6;;
62106;SDS011;48087;32.600;-97.100;2022-08-02T02:58:52;6;;;6;;
62106;SDS011;48087;32.600;-97.100;2022-08-02T03:21:20;4;;;4;;
62106;SDS011;48087;32.600;-97.100;2022-08-02T03:22:29;4;;;4;;
62106;SDS011;48087;32.600;-97.100;2022-08-02T03:44:56;6;;;6;;
62106;SDS011;48087;32.600;-97.100;2022-08-02T03:46:06;6;;;6;;
62106;SDS011;48087;32.600;-97.100;2022-08-02T04:08:33;4;;;4;;
62106;SDS011;48087;32.600;-97.100;2022-08-02T04:30:59;4;;;4;;
62106;SDS011;48087;32.600;-97.100;2022-08-02T04:32:08;6;;;6;;
62106;SDS011;48087;32.600;-97.100;2022-08-02T04:54:35;4;;;4;;
62106;SDS011;48087;32.600;-97.100;2022-08-02T05:17:01;6;;;6;;
62106;SDS011;48087;32.600;-97.100;2022-08-02T05:39:27;8;;;7;;
62106;SDS011;48087;32.600;-97.100;2022-08-02T06:24:19;4;;;4;;
62106;SDS011;48087;32.600;-97.100;2022-08-02T06:46:45;4;;;4;;
62106;SDS011;48087;32.600;-97.100;2022-08-02T06:47:55;6;;;6;;
62106;SDS011;48087;32.600;-97.100;2022-08-02T07:10:21;6;;;6;;
62106;SDS011;48087;32.600;-97.100;2022-08-02T07:32:46;6;;;6;;
62106;SDS011;48087;32.600;-97.100;2022-08-02T07:55:12;6;;;6;;
62106;SDS011;48087;32.600;-97.100;2022-08-02T08:17:37;6;;;6;;
62106;SDS011;48087;32.600;-97.100;2022-08-02T08:40:03;7;;;6;;
62106;SDS011;48087;32.600;-97.100;2022-08-02T09:02:28;7;;;6;;
62106;SDS011;48087;32.600;-97.100;2022-08-02T09:24:53;8;;;7;;
62106;SDS011;48087;32.600;-97.100;2022-08-02T09:47:19;10;;;9;;
62106;SDS011;48087;32.600;-97.100;2022-08-02T10:09:44;10;;;9;;
62106;SDS011;48087;32.600;-97.100;2022-08-02T10:10:53;8;;;7;;
62106;SDS011;48087;32.600;-97.100;2022-08-02T10:33:17;10;;;9;;
62106;SDS011;48087;32.600;-97.100;2022-08-02T10:55:43;11;;;10;;
62106;SDS011;48087;32.600;-97.100;2022-08-02T11:18:07;10;;;9;;
62106;SDS011;48087;32.600;-97.100;2022-08-02T11:40:36;13;;;12;;
62106;SDS011;48087;32.600;-97.100;2022-08-02T12:02:56;11;;;10;;
62106;SDS011;48087;32.600;-97.100;2022-08-02T12:25:21;13;;;12;;
62106;SDS011;48087;32.600;-97.100;2022-08-02T12:47:47;11;;;10;;
62106;SDS011;48087;32.600;-97.100;2022-08-02T13:10:12;13;;;12;;
62106;SDS011;48087;32.600;-97.100;2022-08-02T13:32:38;13;;;12;;
62106;SDS011;48087;32.600;-97.100;2022-08-02T13:33:46;11;;;10;;
62106;SDS011;48087;32.600;-97.100;2022-08-02T13:56:13;11;;;10;;
62106;SDS011;48087;32.600;-97.100;2022-08-02T14:41:10;10;;;9;;
62106;SDS011;48087;32.600;-97.100;2022-08-02T15:03:42;10;;;9;;
62106;SDS011;48087;32.600;-97.100;2022-08-02T15:26:13;10;;;9;;
62106;SDS011;48087;32.600;-97.100;2022-08-02T15:48:45;7;;;6;;
62106;SDS011;48087;32.600;-97.100;2022-08-02T15:49:54;8;;;7;;
62106;SDS011;48087;32.600;-97.100;2022-08-02T16:12:26;7;;;6;;
62106;SDS011;48087;32.600;-97.100;2022-08-02T16:35:00;6;;;6;;
62106;SDS011;48087;32.600;-97.100;2022-08-02T16:36:10;7;;;6;;
62106;SDS011;48087;32.600;-97.100;2022-08-02T16:58:42;7;;;6;;
62106;SDS011;48087;32.600;-97.100;2022-08-02T17:21:16;7;;;6;;
62106;SDS011;48087;32.600;-97.100;2022-08-02T17:43:49;7;;;6;;
62106;SDS011;48087;32.600;-97.100;2022-08-02T18:06:22;4;;;4;;
62106;SDS011;48087;32.600;-97.100;2022-08-02T18:07:31;7;;;6;;
62106;SDS011;48087;32.600;-97.100;2022-08-02T18:30:05;4;;;4;;
62106;SDS011;48087;32.600;-97.100;2022-08-02T18:52:40;7;;;6;;
62106;SDS011;48087;32.600;-97.100;2022-08-02T19:15:15;6;;;5;;
62106;SDS011;48087;32.600;-97.100;2022-08-02T19:37:48;4;;;4;;
62106;SDS011;48087;32.600;-97.100;2022-08-02T20:00:23;5;;;5;;
62106;SDS011;48087;32.600;-97.100;2022-08-02T20:22:58;7;;;6;;
62106;SDS011;48087;32.600;-97.100;2022-08-02T20:45:32;7;;;6;;
62106;SDS011;48087;32.600;-97.100;2022-08-02T21:08:08;7;;;6;;
62106;SDS011;48087;32.600;-97.100;2022-08-02T21:30:42;4;;;4;;
62106;SDS011;48087;32.600;-97.100;2022-08-02T21:53:16;7;;;6;;
62106;SDS011;48087;32.600;-97.100;2022-08-02T22:15:50;6;;;6;;
62106;SDS011;48087;32.600;-97.100;2022-08-02T22:38:25;7;;;6;;
62106;SDS011;48087;32.600;-97.100;2022-08-02T23:00:59;7;;;6;;
62106;SDS011;48087;32.600;-97.100;2022-08-02T23:23:32;7;;;6;;
62106;SDS011;48087;32.600;-97.100;2022-08-02T23:46:05;6;;;6;;
